Time;durP1;ratioP1;P1;durP2;ratioP2;P2;SDS_P1;SDS_P2;PMS_P1;PMS_P2;Temp;Humidity;BMP_temperature;BMP_pressure;BME280_temperature;BME280_humidity;BME280_pressure;Samples;Min_cycle;Max_cycle;Signal;HPM_P1;HPM_P2
2021/07/02 00:00:34;;;;;;;20.58;10.32;;;22.80;85.20;;;;;;5014623;28;20124;-69
2021/07/02 00:03:01;;;;;;;21.88;10.80;;;22.70;86.00;;;;;;5014775;28;20057;-68
2021/07/02 00:05:27;;;;;;;22.42;11.55;;;22.70;85.50;;;;;;5014137;28;20022;-69
2021/07/02 00:07:53;;;;;;;21.88;11.82;;;22.60;85.50;;;;;;5012550;28;20040;-69
2021/07/02 00:10:19;;;;;;;30.25;13.90;;;22.60;85.70;;;;;;4996744;28;20034;-69
2021/07/02 00:12:44;;;;;;;23.90;12.00;;;22.60;85.70;;;;;;5014531;28;20034;-69
2021/07/02 00:15:11;;;;;;;27.48;13.25;;;22.60;85.70;;;;;;5014783;28;20030;-68
2021/07/02 00:17:37;;;;;;;23.35;12.88;;;22.60;85.80;;;;;;4991407;28;20392;-68
2021/07/02 00:20:03;;;;;;;21.60;12.57;;;22.60;85.90;;;;;;5006008;28;20029;-70
2021/07/02 00:22:29;;;;;;;21.75;12.48;;;22.60;85.90;;;;;;4996634;28;20049;-68
2021/07/02 00:24:55;;;;;;;21.23;11.80;;;22.60;86.00;;;;;;4997056;28;20033;-68
2021/07/02 00:27:21;;;;;;;16.92;11.32;;;22.60;86.00;;;;;;5013993;28;20042;-67
2021/07/02 00:29:46;;;;;;;16.13;9.80;;;22.50;86.10;;;;;;5014473;28;20105;-68
2021/07/02 00:32:12;;;;;;;18.70;9.82;;;22.50;86.20;;;;;;4996589;28;20080;-68
2021/07/02 00:34:38;;;;;;;17.38;9.85;;;22.40;86.20;;;;;;4996790;28;20072;-73
2021/07/02 00:37:04;;;;;;;18.45;10.65;;;22.40;86.30;;;;;;5013508;28;20049;-70
2021/07/02 00:39:29;;;;;;;16.42;8.90;;;22.40;86.30;;;;;;4992172;28;20033;-70
2021/07/02 00:41:55;;;;;;;15.02;8.85;;;22.40;86.50;;;;;;5015219;28;20025;-69
2021/07/02 00:44:37;;;;;;;15.82;9.25;;;22.40;86.40;;;;;;5015328;28;20033;-68
2021/07/02 00:47:03;;;;;;;13.75;8.98;;;22.40;86.40;;;;;;4996366;28;20038;-66
2021/07/02 00:49:29;;;;;;;13.45;9.18;;;22.40;86.50;;;;;;4996043;28;20030;-70
2021/07/02 00:51:54;;;;;;;14.20;8.68;;;22.40;86.50;;;;;;5013914;28;20022;-71
2021/07/02 00:54:20;;;;;;;14.43;8.77;;;22.40;86.60;;;;;;5013631;28;20422;-69
2021/07/02 00:56:47;;;;;;;12.85;8.65;;;22.40;86.60;;;;;;4996179;28;20045;-69
2021/07/02 00:59:13;;;;;;;12.80;8.77;;;22.40;86.70;;;;;;4995998;28;20041;-69
2021/07/02 01:01:39;;;;;;;12.23;8.80;;;22.40;86.80;;;;;;5013504;28;20026;-69
2021/07/02 01:04:04;;;;;;;14.25;9.18;;;22.40;86.80;;;;;;5012696;28;20025;-70
2021/07/02 01:06:30;;;;;;;13.73;8.65;;;22.30;86.80;;;;;;4995144;28;20029;-68
2021/07/02 01:08:56;;;;;;;13.75;9.52;;;22.30;87.10;;;;;;4996319;28;20034;-68
2021/07/02 01:11:22;;;;;;;11.70;8.88;;;22.20;87.30;;;;;;5013899;28;20021;-68
2021/07/02 01:13:48;;;;;;;13.05;8.93;;;22.20;87.50;;;;;;4995611;28;20463;-68
2021/07/02 01:16:13;;;;;;;15.02;9.32;;;22.20;87.60;;;;;;5013485;28;20526;-69
2021/07/02 01:18:40;;;;;;;12.18;8.82;;;22.20;87.70;;;;;;4995768;28;20129;-69
2021/07/02 01:21:06;;;;;;;14.65;9.40;;;22.10;87.80;;;;;;5013713;28;20097;-68
2021/07/02 01:23:32;;;;;;;15.95;10.07;;;22.10;87.90;;;;;;4995734;28;20392;-70
2021/07/02 01:25:59;;;;;;;12.55;9.32;;;22.10;87.90;;;;;;4976928;28;20037;-68
2021/07/02 01:28:25;;;;;;;15.80;9.70;;;22.10;87.80;;;;;;5006349;28;20469;-69
2021/07/02 01:30:51;;;;;;;16.02;8.63;;;22.10;87.80;;;;;;4996137;28;20026;-69
2021/07/02 01:33:17;;;;;;;12.93;9.38;;;22.10;87.70;;;;;;4996570;28;20049;-68
2021/07/02 01:35:43;;;;;;;14.25;9.00;;;22.10;87.70;;;;;;4995528;28;20499;-68
2021/07/02 01:38:09;;;;;;;12.73;8.77;;;22.00;87.80;;;;;;5010038;28;20037;-67
2021/07/02 01:40:36;;;;;;;12.73;8.45;;;22.00;88.00;;;;;;4983000;28;20022;-69
2021/07/02 01:43:03;;;;;;;12.20;8.45;;;22.00;88.10;;;;;;4996778;28;20030;-69
2021/07/02 01:45:29;;;;;;;11.77;8.75;;;22.00;88.40;;;;;;4996559;28;20481;-68
2021/07/02 01:47:54;;;;;;;16.55;8.68;;;21.90;88.40;;;;;;4999729;28;20076;-70
2021/07/02 01:50:22;;;;;;;13.52;8.45;;;21.90;88.60;;;;;;5012990;28;20030;-67
2021/07/02 01:52:48;;;;;;;13.27;8.82;;;21.80;88.60;;;;;;4995572;28;20026;-68
2021/07/02 01:55:14;;;;;;;13.57;9.00;;;21.90;88.90;;;;;;5013383;28;20109;-64
2021/07/02 01:57:39;;;;;;;12.77;9.48;;;21.80;89.10;;;;;;4980553;28;20117;-66
2021/07/02 02:00:06;;;;;;;14.55;9.30;;;21.80;89.30;;;;;;4976614;28;20022;-70
2021/07/02 02:02:32;;;;;;;12.00;8.82;;;21.80;89.30;;;;;;5003403;28;20452;-69
2021/07/02 02:04:58;;;;;;;12.38;8.40;;;21.80;89.40;;;;;;5012316;28;20472;-67
2021/07/02 02:07:25;;;;;;;14.70;8.65;;;21.80;89.40;;;;;;4992567;28;20040;-69
2021/07/02 02:09:51;;;;;;;15.38;8.70;;;21.80;89.40;;;;;;4996666;28;20465;-69
2021/07/02 02:12:16;;;;;;;13.35;8.13;;;21.80;89.80;;;;;;5000093;28;20084;-69
2021/07/02 02:14:42;;;;;;;11.70;8.85;;;21.80;89.70;;;;;;5014875;28;20396;-69
2021/07/02 02:17:08;;;;;;;11.45;8.73;;;21.70;89.80;;;;;;4980926;28;20037;-69
2021/07/02 02:19:34;;;;;;;15.10;8.23;;;21.80;90.00;;;;;;4979538;28;20033;-68
2021/07/02 02:22:00;;;;;;;11.88;7.75;;;21.80;90.20;;;;;;4981247;28;20427;-68
2021/07/02 02:24:26;;;;;;;10.60;7.70;;;21.80;89.70;;;;;;4998818;28;20025;-69
2021/07/02 02:26:51;;;;;;;12.05;8.23;;;21.80;89.40;;;;;;4998848;28;20427;-70
2021/07/02 02:29:17;;;;;;;14.38;7.95;;;21.80;89.40;;;;;;4984118;28;20528;-68
2021/07/02 02:31:43;;;;;;;13.65;8.88;;;21.80;89.30;;;;;;4998135;28;20030;-68
2021/07/02 02:34:09;;;;;;;11.82;7.80;;;21.90;89.30;;;;;;4999117;28;20044;-68
2021/07/02 02:36:35;;;;;;;11.10;7.55;;;21.90;89.10;;;;;;5015231;28;20100;-69
2021/07/02 02:39:01;;;;;;;15.68;9.10;;;21.90;89.10;;;;;;4990850;28;20123;-68
2021/07/02 02:41:26;;;;;;;15.27;9.35;;;22.00;89.00;;;;;;5016215;28;20026;-67
2021/07/02 02:43:52;;;;;;;14.73;10.48;;;22.00;88.70;;;;;;4998771;28;20030;-68
2021/07/02 02:46:18;;;;;;;18.67;11.32;;;22.10;88.70;;;;;;5016065;28;20025;-68
2021/07/02 02:48:44;;;;;;;19.35;10.88;;;22.10;88.70;;;;;;4998907;28;20030;-67
2021/07/02 02:51:09;;;;;;;19.95;11.43;;;22.20;88.70;;;;;;4998452;28;20098;-69
2021/07/02 02:53:35;;;;;;;21.58;11.18;;;22.30;88.20;;;;;;5016157;28;20029;-70
2021/07/02 02:56:01;;;;;;;21.27;11.40;;;22.30;87.60;;;;;;5015973;28;20030;-70
2021/07/02 02:58:26;;;;;;;37.38;14.15;;;22.30;87.10;;;;;;4998429;28;20064;-69
2021/07/02 03:00:52;;;;;;;94.45;27.05;;;22.40;87.00;;;;;;4998253;28;20029;-69
2021/07/02 03:03:20;;;;;;;92.95;25.73;;;22.50;87.20;;;;;;4998217;28;20029;-68
2021/07/02 03:05:47;;;;;;;69.10;20.52;;;22.70;87.00;;;;;;5015915;28;20065;-69
2021/07/02 03:08:13;;;;;;;63.80;19.30;;;22.90;86.10;;;;;;4992283;28;20026;-66
2021/07/02 03:10:38;;;;;;;51.17;17.13;;;23.10;85.50;;;;;;5016012;28;20037;-68
2021/07/02 03:13:04;;;;;;;49.90;16.15;;;23.20;84.70;;;;;;4984937;28;20150;-69
2021/07/02 03:15:30;;;;;;;41.53;15.30;;;23.30;84.10;;;;;;4995649;28;20465;-69
2021/07/02 03:17:55;;;;;;;26.88;11.82;;;23.40;83.40;;;;;;4995987;28;20038;-69
2021/07/02 03:20:21;;;;;;;23.98;11.57;;;23.50;82.20;;;;;;4995530;28;20030;-69
2021/07/02 03:22:47;;;;;;;19.73;10.45;;;23.60;81.80;;;;;;4996550;28;20026;-69
2021/07/02 03:25:13;;;;;;;19.08;9.38;;;23.70;81.50;;;;;;4977556;28;20026;-67
2021/07/02 03:27:40;;;;;;;19.02;10.45;;;23.80;81.20;;;;;;4979119;28;20022;-79
2021/07/02 03:30:08;;;;;;;25.92;11.32;;;23.90;80.70;;;;;;4978170;28;20027;-69
2021/07/02 03:32:33;;;;;;;29.48;13.07;;;24.10;80.20;;;;;;4978436;28;20022;-68
2021/07/02 03:35:00;;;;;;;35.53;14.23;;;24.30;79.40;;;;;;4995777;28;20027;-68
2021/07/02 03:37:25;;;;;;;44.13;15.75;;;24.40;79.10;;;;;;4988268;28;20034;-69
2021/07/02 03:39:51;;;;;;;58.75;19.88;;;24.70;78.60;;;;;;4996107;28;20389;-68
2021/07/02 03:42:17;;;;;;;71.20;22.77;;;24.90;77.10;;;;;;4996269;28;20034;-68
2021/07/02 03:44:43;;;;;;;98.10;29.67;;;25.00;76.80;;;;;;4979207;28;20061;-70
2021/07/02 03:47:09;;;;;;;91.72;26.77;;;25.10;76.90;;;;;;4977799;28;20440;-71
2021/07/02 03:49:35;;;;;;;95.68;24.85;;;25.20;75.70;;;;;;4995335;28;20023;-69
2021/07/02 03:52:01;;;;;;;64.68;20.67;;;25.20;75.70;;;;;;4995530;28;20030;-75
2021/07/02 03:54:26;;;;;;;74.45;21.38;;;25.40;75.10;;;;;;4977889;28;20022;-70
2021/07/02 03:57:11;;;;;;;45.65;15.25;;;25.50;74.70;;;;;;4995229;28;20045;-68
2021/07/02 03:59:37;;;;;;;26.17;12.45;;;25.60;74.60;;;;;;4995385;28;20030;-68
2021/07/02 04:02:03;;;;;;;23.80;11.15;;;25.70;74.20;;;;;;4994669;28;20022;-69
2021/07/02 04:04:28;;;;;;;30.73;14.18;;;25.80;73.50;;;;;;4977509;28;20034;-68
2021/07/02 04:06:54;;;;;;;27.08;16.08;;;25.90;73.20;;;;;;4970162;28;20038;-68
2021/07/02 04:09:20;;;;;;;23.95;14.77;;;26.00;73.00;;;;;;4995058;28;20030;-68
2021/07/02 04:11:45;;;;;;;37.35;20.30;;;26.10;72.70;;;;;;4977145;28;20041;-69
2021/07/02 04:14:11;;;;;;;38.38;22.67;;;26.30;72.70;;;;;;4994774;28;20141;-69
2021/07/02 04:16:37;;;;;;;21.50;13.35;;;26.60;72.30;;;;;;4994693;28;20477;-68
2021/07/02 04:19:02;;;;;;;32.67;13.77;;;26.90;71.60;;;;;;4994652;28;20041;-69
2021/07/02 04:21:28;;;;;;;48.33;18.02;;;27.10;71.60;;;;;;4977606;28;20026;-68
2021/07/02 04:23:54;;;;;;;46.67;16.65;;;27.20;70.60;;;;;;4994698;28;20022;-68
2021/07/02 04:26:20;;;;;;;50.00;17.23;;;27.40;70.20;;;;;;4994766;28;20499;-67
2021/07/02 04:28:45;;;;;;;53.60;19.85;;;27.80;69.90;;;;;;4994528;28;20026;-68
2021/07/02 04:31:11;;;;;;;59.58;18.30;;;27.90;68.40;;;;;;4977379;28;20027;-70
2021/07/02 04:33:36;;;;;;;53.17;18.83;;;27.90;68.20;;;;;;4994765;28;20084;-72
2021/07/02 04:36:02;;;;;;;49.92;19.50;;;28.00;68.20;;;;;;4992718;28;20034;-68
2021/07/02 04:38:28;;;;;;;72.30;24.48;;;28.20;67.50;;;;;;4985995;28;20055;-69
2021/07/02 04:40:54;;;;;;;68.28;22.52;;;28.30;67.10;;;;;;4976572;28;20100;-69
2021/07/02 04:43:20;;;;;;;60.40;22.33;;;28.40;67.70;;;;;;4994318;28;20026;-68
2021/07/02 04:45:45;;;;;;;71.32;24.77;;;28.60;66.70;;;;;;4992770;28;20533;-69
2021/07/02 04:48:11;;;;;;;75.93;27.38;;;28.70;66.30;;;;;;4982218;28;20102;-68
2021/07/02 04:50:37;;;;;;;73.00;24.95;;;28.80;66.00;;;;;;4976998;28;20027;-67
2021/07/02 04:53:02;;;;;;;72.75;24.35;;;29.00;65.90;;;;;;4994032;28;20080;-69
2021/07/02 04:55:28;;;;;;;81.15;27.30;;;29.00;65.50;;;;;;4976628;28;20420;-69
2021/07/02 04:57:54;;;;;;;84.05;28.63;;;29.20;65.40;;;;;;4973152;28;20416;-72
2021/07/02 05:00:20;;;;;;;63.38;23.55;;;29.20;64.90;;;;;;4972895;28;20117;-70
2021/07/02 05:02:48;;;;;;;73.45;24.00;;;29.40;64.80;;;;;;4994188;28;20026;-70
2021/07/02 05:05:13;;;;;;;56.50;19.65;;;29.70;64.50;;;;;;4977433;28;20428;-70
2021/07/02 05:07:40;;;;;;;52.20;18.02;;;30.00;64.40;;;;;;4985610;28;20033;-69
2021/07/02 05:10:06;;;;;;;26.85;12.02;;;30.40;64.10;;;;;;4977755;28;20030;-71
2021/07/02 05:12:32;;;;;;;22.35;11.98;;;31.00;63.40;;;;;;4980016;28;20031;-69
2021/07/02 05:14:58;;;;;;;18.75;10.25;;;31.60;62.30;;;;;;4969299;28;20519;-74
2021/07/02 05:17:24;;;;;;;14.65;9.85;;;32.00;60.90;;;;;;4989466;28;20113;-70
2021/07/02 05:19:50;;;;;;;12.80;9.85;;;32.40;60.20;;;;;;4995449;28;20026;-71
2021/07/02 05:22:17;;;;;;;20.73;10.43;;;32.70;59.30;;;;;;4991993;28;20117;-68
2021/07/02 05:24:43;;;;;;;15.60;10.40;;;32.90;58.90;;;;;;4972463;28;20050;-74
2021/07/02 05:27:09;;;;;;;19.13;11.15;;;32.90;58.30;;;;;;4958419;28;20033;-71
2021/07/02 05:29:35;;;;;;;17.02;11.30;;;33.10;58.10;;;;;;4985284;28;20106;-68
2021/07/02 05:32:01;;;;;;;14.20;10.75;;;33.30;57.60;;;;;;4971595;28;20035;-75
2021/07/02 05:34:27;;;;;;;15.45;10.50;;;33.30;57.20;;;;;;4980069;28;20026;-70
2021/07/02 05:36:52;;;;;;;15.50;10.00;;;33.50;57.00;;;;;;4969233;28;20098;-70
2021/07/02 05:39:18;;;;;;;13.45;10.05;;;33.60;57.10;;;;;;4955531;28;20540;-73
2021/07/02 05:41:44;;;;;;;13.43;9.98;;;33.70;56.70;;;;;;4969027;28;20023;-73
2021/07/02 05:44:09;;;;;;;17.75;10.25;;;34.00;56.60;;;;;;4982475;28;20031;-71
2021/07/02 05:46:35;;;;;;;15.23;11.15;;;34.40;55.60;;;;;;4960237;28;20470;-73
2021/07/02 05:49:03;;;;;;;16.50;9.88;;;34.60;55.30;;;;;;4956400;28;20114;-73
2021/07/02 05:51:29;;;;;;;15.55;10.43;;;34.70;55.00;;;;;;4962289;28;20034;-73
2021/07/02 05:53:54;;;;;;;14.70;10.10;;;35.10;54.70;;;;;;4970084;28;20086;-75
2021/07/02 05:56:27;;;;;;;16.88;11.25;;;35.40;53.70;;;;;;4974143;28;20043;-75
2021/07/02 05:58:53;;;;;;;16.00;10.70;;;35.50;53.50;;;;;;4953119;29;20467;-69
2021/07/02 06:01:18;;;;;;;14.80;9.73;;;35.50;53.00;;;;;;4977666;28;20118;-74
2021/07/02 06:03:44;;;;;;;14.63;10.63;;;35.70;52.90;;;;;;4978036;28;20031;-69
2021/07/02 06:06:10;;;;;;;17.27;10.13;;;35.90;52.60;;;;;;4976436;28;20026;-73
2021/07/02 06:08:35;;;;;;;25.50;12.32;;;35.90;52.60;;;;;;4960927;28;20535;-72
2021/07/02 06:11:01;;;;;;;15.15;11.02;;;35.90;52.50;;;;;;4980292;28;20030;-70
2021/07/02 06:13:27;;;;;;;13.85;10.82;;;36.00;52.20;;;;;;4978362;28;20512;-75
2021/07/02 06:15:53;;;;;;;15.70;10.90;;;36.10;52.20;;;;;;4998409;28;20044;-71
2021/07/02 06:18:19;;;;;;;20.13;11.18;;;36.20;52.00;;;;;;4995460;28;20034;-70
2021/07/02 06:20:44;;;;;;;24.80;10.80;;;36.40;51.60;;;;;;4995328;28;20027;-71
2021/07/02 06:23:10;;;;;;;14.88;10.38;;;36.40;51.50;;;;;;4995206;28;20034;-73
2021/07/02 06:25:36;;;;;;;14.63;11.02;;;36.20;51.40;;;;;;4991559;28;20056;-69
2021/07/02 06:28:01;;;;;;;16.58;10.75;;;36.20;50.90;;;;;;5010260;28;20033;-71
2021/07/02 06:30:27;;;;;;;19.00;12.02;;;36.00;50.60;;;;;;4995951;28;20023;-75
2021/07/02 06:32:53;;;;;;;17.17;10.48;;;35.70;51.20;;;;;;5013797;28;20061;-65
2021/07/02 06:35:18;;;;;;;20.92;12.77;;;35.60;51.50;;;;;;4992188;28;20030;-68
2021/07/02 06:37:49;;;;;;;26.75;13.57;;;35.60;51.60;;;;;;4991636;28;20030;-70
2021/07/02 06:40:16;;;;;;;47.38;20.52;;;35.80;51.70;;;;;;4977289;28;20101;-69
2021/07/02 06:42:42;;;;;;;56.65;20.70;;;35.90;51.10;;;;;;4976683;28;20092;-67
2021/07/02 06:45:08;;;;;;;26.80;15.60;;;35.80;51.30;;;;;;4977442;28;20022;-72
2021/07/02 06:47:34;;;;;;;24.70;14.07;;;35.70;51.20;;;;;;4995112;28;20431;-71
2021/07/02 06:50:00;;;;;;;37.78;16.48;;;35.60;51.90;;;;;;5010913;28;20030;-70
2021/07/02 06:52:25;;;;;;;40.05;18.92;;;35.70;52.00;;;;;;4977645;28;20051;-71
2021/07/02 06:54:51;;;;;;;30.50;13.30;;;35.70;51.70;;;;;;4991505;28;20027;-70
2021/07/02 06:57:17;;;;;;;39.67;14.93;;;35.70;51.80;;;;;;4991086;28;20125;-71
2021/07/02 06:59:42;;;;;;;32.40;13.13;;;35.70;51.90;;;;;;4987568;28;20392;-72
2021/07/02 07:02:10;;;;;;;37.45;15.48;;;35.80;51.10;;;;;;5009701;28;20427;-70
2021/07/02 07:04:36;;;;;;;37.22;14.45;;;35.70;51.30;;;;;;5015761;28;20068;-70
2021/07/02 07:07:03;;;;;;;34.47;13.82;;;35.70;51.30;;;;;;4998153;28;20105;-70
2021/07/02 07:09:30;;;;;;;22.48;10.32;;;36.00;51.10;;;;;;4995676;28;20026;-72
2021/07/02 07:11:56;;;;;;;24.25;11.82;;;36.30;50.90;;;;;;4977212;28;20027;-71
2021/07/02 07:14:23;;;;;;;19.38;8.80;;;36.70;50.00;;;;;;4994688;28;20439;-71
2021/07/02 07:16:48;;;;;;;33.42;12.07;;;36.90;49.20;;;;;;5015563;28;20029;-71
2021/07/02 07:19:15;;;;;;;22.65;9.75;;;36.90;48.80;;;;;;5015602;28;20031;-71
2021/07/02 07:21:40;;;;;;;42.70;11.45;;;37.00;48.80;;;;;;4997860;28;20036;-71
2021/07/02 07:24:06;;;;;;;28.92;9.75;;;37.10;48.10;;;;;;5014903;28;20018;-70
2021/07/02 07:26:32;;;;;;;22.30;9.55;;;36.80;47.70;;;;;;4997693;28;20088;-70
2021/07/02 07:28:58;;;;;;;30.05;14.27;;;36.80;48.50;;;;;;4997723;28;20021;-69
2021/07/02 07:31:23;;;;;;;20.70;10.45;;;37.00;48.00;;;;;;4997808;28;20486;-69
2021/07/02 07:33:51;;;;;;;26.27;10.15;;;36.90;48.30;;;;;;4997413;28;20053;-70
2021/07/02 07:36:18;;;;;;;23.45;10.15;;;37.10;47.60;;;;;;5006967;28;20081;-71
2021/07/02 07:38:44;;;;;;;24.92;12.32;;;37.10;47.80;;;;;;5009058;28;20104;-70
2021/07/02 07:41:10;;;;;;;20.65;9.35;;;36.80;47.10;;;;;;4997410;28;20053;-74
2021/07/02 07:43:35;;;;;;;14.55;7.50;;;36.80;47.60;;;;;;5015118;28;20453;-73
2021/07/02 07:46:05;;;;;;;10.40;6.65;;;36.90;47.90;;;;;;4997465;28;20028;-70
2021/07/02 07:48:31;;;;;;;11.13;6.45;;;37.30;47.40;;;;;;4997671;28;20448;-72
2021/07/02 07:51:13;;;;;;;14.02;6.30;;;38.00;46.80;;;;;;4997885;28;20037;-72
2021/07/02 07:53:38;;;;;;;8.43;5.85;;;38.50;45.90;;;;;;5015155;28;20026;-73
2021/07/02 07:56:04;;;;;;;10.40;6.50;;;38.90;45.00;;;;;;5014429;28;20033;-74
2021/07/02 07:58:30;;;;;;;10.80;6.75;;;38.90;43.90;;;;;;4997435;28;20026;-72
2021/07/02 08:00:56;;;;;;;10.85;6.82;;;38.70;44.20;;;;;;5015804;28;20026;-72
2021/07/02 08:03:21;;;;;;;13.70;7.63;;;38.50;44.70;;;;;;4997372;28;20471;-72
2021/07/02 08:05:47;;;;;;;17.92;8.48;;;38.00;45.10;;;;;;5014234;28;20045;-71
2021/07/02 08:08:14;;;;;;;29.85;10.82;;;37.80;46.00;;;;;;5014463;28;20030;-77
2021/07/02 08:10:39;;;;;;;32.15;10.55;;;37.80;46.40;;;;;;4997514;28;20033;-71
2021/07/02 08:13:05;;;;;;;23.40;8.30;;;37.70;46.20;;;;;;4997075;28;20084;-71
2021/07/02 08:15:31;;;;;;;11.35;6.95;;;37.40;46.70;;;;;;5016122;28;20033;-78
2021/07/02 08:17:57;;;;;;;16.98;6.88;;;37.70;46.70;;;;;;5001808;28;20034;-73
2021/07/02 08:20:22;;;;;;;12.63;6.80;;;38.00;45.60;;;;;;5017207;28;20026;-73
2021/07/02 08:22:48;;;;;;;17.52;8.00;;;38.10;45.80;;;;;;4998625;28;20551;-73
2021/07/02 08:25:14;;;;;;;18.48;7.90;;;38.40;45.20;;;;;;4996542;28;20076;-75
2021/07/02 08:30:24;;;;;;;16.17;7.80;;;38.60;45.40;;;;;;5014114;28;20129;-71
2021/07/02 08:32:50;;;;;;;18.98;10.85;;;38.70;45.00;;;;;;4997113;28;20030;-72
2021/07/02 08:35:21;;;;;;;22.27;11.60;;;38.90;44.80;;;;;;5011449;28;20096;-70
2021/07/02 08:37:47;;;;;;;24.83;9.57;;;38.90;44.30;;;;;;5013483;28;20125;-74
2021/07/02 08:40:13;;;;;;;17.98;7.50;;;38.80;44.10;;;;;;4996265;28;20125;-73
2021/07/02 08:42:39;;;;;;;16.33;8.43;;;38.50;44.10;;;;;;5013711;28;20032;-73
2021/07/02 08:45:05;;;;;;;24.30;11.85;;;38.50;44.30;;;;;;5014046;28;20482;-73
2021/07/02 08:47:31;;;;;;;23.17;9.45;;;38.60;44.50;;;;;;4995876;28;20041;-73
2021/07/02 08:49:57;;;;;;;17.67;7.88;;;38.50;44.40;;;;;;4996441;28;20100;-73
2021/07/02 08:52:23;;;;;;;22.10;8.15;;;38.40;44.80;;;;;;5013725;28;20482;-76
2021/07/02 08:54:48;;;;;;;24.00;7.28;;;38.50;44.20;;;;;;5000262;28;20029;-73
2021/07/02 08:57:14;;;;;;;32.85;8.27;;;38.50;43.90;;;;;;5013816;28;20464;-73
2021/07/02 08:59:40;;;;;;;14.23;6.40;;;38.60;43.70;;;;;;5014115;28;20460;-79
2021/07/02 09:02:05;;;;;;;15.27;5.70;;;38.80;42.70;;;;;;5013695;28;20031;-72
2021/07/02 09:04:34;;;;;;;25.10;6.63;;;38.90;42.60;;;;;;5012865;28;20057;-74
2021/07/02 09:07:12;;;;;;;27.85;7.28;;;39.30;42.60;;;;;;4994326;28;20033;-72
2021/07/02 09:09:51;;;;;;;19.95;6.15;;;39.50;42.00;;;;;;4996044;28;20172;-71
2021/07/02 09:12:21;;;;;;;17.38;6.68;;;39.50;41.90;;;;;;4995791;28;20036;-73
2021/07/02 09:15:06;;;;;;;12.18;5.60;;;39.30;42.50;;;;;;4995967;28;20400;-73
2021/07/02 09:17:53;;;;;;;10.77;5.93;;;39.50;42.70;;;;;;4970959;28;20033;-71
2021/07/02 09:20:22;;;;;;;10.70;5.60;;;39.50;42.40;;;;;;5012390;28;20049;-73
2021/07/02 09:22:55;;;;;;;13.23;5.68;;;39.10;42.30;;;;;;4996217;28;20475;-73
2021/07/02 09:25:31;;;;;;;7.05;5.55;;;38.40;42.90;;;;;;5004068;28;20026;-72
2021/07/02 09:27:59;;;;;;;10.07;6.18;;;37.80;43.70;;;;;;5014033;28;20026;-72
2021/07/02 09:30:27;;;;;;;15.55;7.00;;;37.40;45.00;;;;;;4995153;28;20117;-72
2021/07/02 09:32:56;;;;;;;13.57;7.15;;;37.20;45.50;;;;;;4996260;28;20026;-72
2021/07/02 09:35:28;;;;;;;8.73;6.10;;;37.30;46.00;;;;;;4992206;28;20495;-74
2021/07/02 09:37:58;;;;;;;18.95;6.28;;;37.40;46.20;;;;;;4989100;28;20025;-71
2021/07/02 09:40:30;;;;;;;12.73;6.82;;;37.60;45.10;;;;;;5014197;28;20033;-73
2021/07/02 09:43:17;;;;;;;9.85;6.50;;;37.20;44.90;;;;;;4969657;28;20036;-74
2021/07/02 09:45:47;;;;;;;12.63;7.10;;;36.40;45.50;;;;;;5000558;28;20030;-72
2021/07/02 09:48:14;;;;;;;20.58;8.35;;;36.00;46.60;;;;;;5001281;28;20037;-72
2021/07/02 09:50:45;;;;;;;15.73;7.65;;;36.30;46.80;;;;;;4999318;28;20044;-72
2021/07/02 09:53:11;;;;;;;12.90;9.35;;;36.90;46.80;;;;;;4970224;28;20049;-72
2021/07/02 09:55:45;;;;;;;15.05;9.32;;;37.10;47.20;;;;;;4995764;28;20037;-73
2021/07/02 09:58:14;;;;;;;13.88;9.52;;;36.80;47.50;;;;;;4995833;28;20353;-77
2021/07/02 10:01:00;;;;;;;15.48;9.60;;;36.40;48.20;;;;;;4996354;28;20108;-71
2021/07/02 10:03:30;;;;;;;11.43;9.23;;;36.00;49.30;;;;;;4992693;28;20019;-73
2021/07/02 10:06:05;;;;;;;12.27;8.65;;;36.00;50.30;;;;;;4984921;28;20030;-73
2021/07/02 10:08:36;;;;;;;10.95;8.60;;;36.20;50.10;;;;;;4995582;28;20494;-73
2021/07/02 10:11:07;;;;;;;9.10;8.00;;;36.40;50.30;;;;;;4996256;28;20380;-71
2021/07/02 10:13:35;;;;;;;10.35;8.18;;;36.70;49.60;;;;;;5012541;28;20061;-73
2021/07/02 10:16:05;;;;;;;10.65;7.43;;;36.60;49.20;;;;;;4995267;28;20038;-73
2021/07/02 10:18:33;;;;;;;13.63;8.05;;;36.20;49.90;;;;;;4994858;28;20026;-73
2021/07/02 10:21:02;;;;;;;11.32;9.02;;;35.70;50.20;;;;;;5012697;28;20065;-72
2021/07/02 10:23:33;;;;;;;10.75;7.88;;;35.30;51.50;;;;;;4995484;28;20030;-72
2021/07/02 10:26:02;;;;;;;12.57;8.13;;;35.00;51.90;;;;;;4995123;28;20030;-72
2021/07/02 10:28:29;;;;;;;15.13;10.10;;;34.60;52.10;;;;;;4995263;28;20033;-72
2021/07/02 10:30:54;;;;;;;11.60;8.82;;;34.20;52.60;;;;;;4994873;28;20022;-72
2021/07/02 10:33:23;;;;;;;15.20;10.00;;;34.10;53.70;;;;;;4995432;28;20022;-72
2021/07/02 10:36:00;;;;;;;12.40;9.48;;;33.80;54.10;;;;;;4985212;28;20076;-78
2021/07/02 10:38:39;;;;;;;14.05;9.07;;;33.80;54.70;;;;;;4998511;28;20083;-72
2021/07/02 10:41:21;;;;;;;12.85;9.23;;;33.60;54.60;;;;;;4998566;28;20029;-72
2021/07/02 10:44:12;;;;;;;12.93;9.50;;;33.40;55.10;;;;;;4999108;28;20030;-70
2021/07/02 10:46:47;;;;;;;15.95;11.20;;;33.20;55.10;;;;;;4977214;28;20040;-70
2021/07/02 10:49:13;;;;;;;18.40;11.32;;;33.00;55.70;;;;;;4998382;28;20040;-75
2021/07/02 10:51:54;;;;;;;16.20;10.38;;;32.80;56.20;;;;;;4976318;28;20109;-72
2021/07/02 10:54:21;;;;;;;12.05;10.13;;;33.10;56.30;;;;;;4998205;28;20400;-73
2021/07/02 10:56:49;;;;;;;14.13;8.95;;;33.20;55.90;;;;;;4998847;28;20038;-75
2021/07/02 10:59:19;;;;;;;14.57;8.90;;;33.40;56.80;;;;;;5016146;28;20022;-75
2021/07/02 11:02:15;;;;;;;12.98;8.95;;;33.70;56.90;;;;;;5015928;28;20022;-72
2021/07/02 11:04:43;;;;;;;9.25;8.25;;;33.50;56.00;;;;;;5016312;28;20029;-71
2021/07/02 11:07:12;;;;;;;13.25;9.88;;;33.30;56.40;;;;;;4998149;28;20411;-71
2021/07/02 11:12:19;;;;;;;11.82;8.77;;;32.90;57.40;;;;;;4996255;28;20026;-76
2021/07/02 11:14:58;;;;;;;14.20;9.10;;;32.60;58.10;;;;;;4996658;28;20043;-72
2021/07/02 11:17:23;;;;;;;12.63;9.32;;;32.50;58.70;;;;;;4988929;28;20109;-70
2021/07/02 11:20:10;;;;;;;13.48;9.80;;;32.50;58.60;;;;;;5019546;28;20056;-69
2021/07/02 11:22:39;;;;;;;13.57;9.13;;;32.40;58.40;;;;;;4994095;28;20018;-71
2021/07/02 11:25:14;;;;;;;12.95;9.68;;;32.50;58.50;;;;;;5002220;28;20030;-71
2021/07/02 11:27:50;;;;;;;13.48;9.63;;;32.40;58.50;;;;;;4990597;28;20022;-71
2021/07/02 11:30:35;;;;;;;13.52;9.90;;;32.30;58.60;;;;;;5015236;28;20092;-72
2021/07/02 11:33:03;;;;;;;12.88;9.25;;;32.40;58.70;;;;;;4993132;28;20084;-78
2021/07/02 11:35:31;;;;;;;14.70;9.45;;;32.50;58.70;;;;;;5015080;28;20034;-73
2021/07/02 11:38:00;;;;;;;14.40;10.10;;;32.50;59.00;;;;;;5015427;28;20025;-70
2021/07/02 11:40:37;;;;;;;14.98;9.35;;;32.50;58.50;;;;;;4997869;28;20476;-71
2021/07/02 11:43:08;;;;;;;12.57;8.88;;;32.60;58.90;;;;;;4998049;28;20439;-70
2021/07/02 11:45:42;;;;;;;13.07;9.90;;;32.60;58.50;;;;;;4997631;28;20029;-71
2021/07/02 11:48:30;;;;;;;13.68;10.25;;;32.50;58.60;;;;;;4964888;28;20027;-69
2021/07/02 11:51:18;;;;;;;13.50;9.23;;;32.30;58.40;;;;;;4978420;28;20035;-72
2021/07/02 11:53:50;;;;;;;16.83;9.10;;;32.10;58.90;;;;;;4997423;28;20072;-72
2021/07/02 11:56:28;;;;;;;16.50;9.70;;;31.90;59.40;;;;;;5014511;28;20025;-71
2021/07/02 11:58:59;;;;;;;13.77;9.57;;;31.90;59.80;;;;;;4997680;28;20029;-71
2021/07/02 12:01:39;;;;;;;14.88;9.38;;;31.90;59.90;;;;;;4997214;28;20022;-69
2021/07/02 12:04:09;;;;;;;11.95;9.40;;;31.80;59.80;;;;;;4988730;28;20472;-70
2021/07/02 12:06:42;;;;;;;14.07;9.60;;;31.70;59.90;;;;;;4977213;28;20499;-71
2021/07/02 12:09:13;;;;;;;14.63;9.20;;;31.60;60.50;;;;;;4978154;28;20081;-69
2021/07/02 12:11:39;;;;;;;13.48;9.20;;;31.50;61.20;;;;;;4977441;28;20022;-72
2021/07/02 12:14:09;;;;;;;12.15;9.73;;;31.60;61.10;;;;;;4983518;28;20565;-72
2021/07/02 12:16:44;;;;;;;10.38;8.60;;;31.50;61.00;;;;;;4996284;28;20036;-71
2021/07/02 12:19:15;;;;;;;14.20;9.85;;;31.50;61.40;;;;;;4970677;28;20025;-71
2021/07/02 12:22:13;;;;;;;12.85;9.98;;;31.50;61.40;;;;;;4997186;28;20049;-72
2021/07/02 12:24:44;;;;;;;15.43;11.55;;;31.50;61.30;;;;;;4997165;28;20430;-70
2021/07/02 12:27:14;;;;;;;15.00;10.95;;;31.40;60.80;;;;;;4996464;28;20033;-69
2021/07/02 12:29:41;;;;;;;19.27;10.23;;;31.30;61.20;;;;;;4996714;28;20026;-70
2021/07/02 12:32:09;;;;;;;14.30;10.00;;;31.40;61.20;;;;;;4996419;28;20096;-70
2021/07/02 12:34:45;;;;;;;13.23;9.95;;;31.40;61.30;;;;;;5014870;28;20029;-70
2021/07/02 12:37:23;;;;;;;13.32;9.60;;;31.60;61.70;;;;;;4996532;28;20504;-69
2021/07/02 12:39:57;;;;;;;11.85;8.15;;;31.60;61.70;;;;;;4996674;28;20169;-69
2021/07/02 12:42:42;;;;;;;10.45;8.70;;;31.50;61.40;;;;;;4980552;28;20033;-69